createdAt,value
2017-06-28T00:02:10.422Z,99352.53
2017-06-28T00:04:36.825Z,99348.23
2017-06-28T00:07:03.185Z,99334.92
2017-06-28T00:09:29.608Z,99338.33
2017-06-28T00:11:55.959Z,99330.28
2017-06-28T00:14:22.300Z,99330.70
2017-06-28T00:16:48.629Z,99325.34
2017-06-28T00:19:14.959Z,99320.64
2017-06-28T00:21:41.309Z,99314.64
2017-06-28T00:24:07.721Z,99316.55
2017-06-28T00:26:34.049Z,99311.05
2017-06-28T00:29:00.447Z,99310.34
2017-06-28T00:31:26.774Z,99301.56
2017-06-28T00:33:53.118Z,99296.64
2017-06-28T00:36:19.477Z,99294.63
2017-06-28T00:38:45.848Z,99292.36
2017-06-28T00:41:12.281Z,99286.86
2017-06-28T00:43:38.622Z,99282.92
2017-06-28T00:46:05.004Z,99284.41
2017-06-28T00:48:31.354Z,99269.44
2017-06-28T00:50:57.771Z,99260.27
2017-06-28T00:53:24.117Z,99257.75
2017-06-28T00:55:50.492Z,99263.60
2017-06-28T00:58:16.842Z,99262.02
2017-06-28T01:00:43.190Z,99267.88
2017-06-28T01:03:09.556Z,99260.00
2017-06-28T01:05:35.948Z,99262.05
2017-06-28T01:08:02.289Z,99250.36
2017-06-28T01:10:28.650Z,99249.38
2017-06-28T01:12:55.051Z,99246.78
2017-06-28T01:15:21.436Z,99243.47
2017-06-28T01:17:47.777Z,99234.72
2017-06-28T01:20:14.098Z,99239.34
2017-06-28T01:22:40.504Z,99231.47
2017-06-28T01:25:06.837Z,99235.61
2017-06-28T01:27:33.151Z,99230.84
2017-06-28T01:29:59.494Z,99224.74
2017-06-28T01:32:25.866Z,99221.70
2017-06-28T01:34:52.236Z,99222.30
2017-06-28T01:37:18.590Z,99220.55
2017-06-28T01:39:44.969Z,99216.52
2017-06-28T01:42:11.334Z,99213.84
2017-06-28T01:44:37.718Z,99208.91
2017-06-28T01:47:04.115Z,99213.68
2017-06-28T01:49:30.499Z,99219.95
2017-06-28T01:51:56.904Z,99212.27
2017-06-28T01:54:23.284Z,99210.49
2017-06-28T01:56:49.640Z,99210.36
2017-06-28T01:59:15.987Z,99200.06
2017-06-28T02:01:42.348Z,99206.81
2017-06-28T02:04:08.751Z,99203.16
2017-06-28T02:06:35.117Z,99201.84
2017-06-28T02:09:01.438Z,99199.45
2017-06-28T02:11:27.805Z,99202.58
2017-06-28T02:13:54.152Z,99194.41
2017-06-28T02:16:20.544Z,99190.00
2017-06-28T02:18:46.874Z,99188.67
2017-06-28T02:21:13.221Z,99177.56
2017-06-28T02:23:39.569Z,99177.72
2017-06-28T02:26:05.917Z,99169.04
2017-06-28T02:28:32.264Z,99156.49
2017-06-28T02:30:58.628Z,99155.48
2017-06-28T02:33:24.981Z,99155.73
2017-06-28T02:35:51.330Z,99162.44
2017-06-28T02:38:17.656Z,99152.64
2017-06-28T02:40:44.015Z,99153.11
2017-06-28T02:43:10.365Z,99153.73
2017-06-28T02:45:36.714Z,99155.66
2017-06-28T02:48:03.072Z,99160.64
2017-06-28T02:50:29.448Z,99155.83
2017-06-28T02:52:55.840Z,99156.73
2017-06-28T02:55:22.184Z,99148.23
2017-06-28T02:57:48.542Z,99145.50
2017-06-28T03:00:14.853Z,99152.26
2017-06-28T03:02:41.201Z,99145.39
2017-06-28T03:05:07.541Z,99143.28
2017-06-28T03:07:33.891Z,99129.91
2017-06-28T03:10:00.211Z,99132.41
2017-06-28T03:24:34.760Z,99109.88
2017-06-28T03:27:01.116Z,99105.72
2017-06-28T03:29:27.483Z,99096.77
2017-06-28T03:31:53.846Z,99093.79
2017-06-28T03:34:20.217Z,99090.09
2017-06-28T03:36:46.584Z,99102.50
2017-06-28T03:39:12.959Z,99096.77
2017-06-28T03:41:39.296Z,99098.20
2017-06-28T03:44:05.638Z,99097.95
2017-06-28T03:46:32.002Z,99102.46
2017-06-28T03:48:58.347Z,99100.77
2017-06-28T03:51:24.740Z,99097.20
2017-06-28T03:53:51.104Z,99096.17
2017-06-28T03:56:17.445Z,99098.29
2017-06-28T03:58:43.859Z,99097.31
2017-06-28T04:01:10.207Z,99097.98
2017-06-28T04:03:36.584Z,99098.20
2017-06-28T04:06:02.930Z,99097.83
2017-06-28T04:08:29.268Z,99099.45
2017-06-28T04:10:55.614Z,99095.91
2017-06-28T04:13:21.956Z,99101.76
2017-06-28T04:15:48.319Z,99096.42
2017-06-28T04:18:14.705Z,99093.59
2017-06-28T04:20:41.089Z,99089.15
2017-06-28T04:23:07.443Z,99090.62
2017-06-28T04:25:33.894Z,99093.20
2017-06-28T04:28:00.295Z,99097.62
2017-06-28T04:30:26.702Z,99098.52
2017-06-28T04:32:53.087Z,99101.23
2017-06-28T04:35:19.441Z,99098.98
2017-06-28T04:37:45.787Z,99088.48
2017-06-28T04:40:12.144Z,99085.81
2017-06-28T04:42:38.499Z,99090.51
2017-06-28T04:45:05.744Z,99095.27
2017-06-28T04:47:32.102Z,99096.25
2017-06-28T04:49:58.495Z,99096.78
2017-06-28T04:52:24.852Z,99102.28
2017-06-28T04:54:51.204Z,99100.55
2017-06-28T04:57:17.583Z,99099.16
2017-06-28T04:59:43.942Z,99103.09
2017-06-28T05:02:10.280Z,99101.31
2017-06-28T05:04:36.690Z,99089.25
2017-06-28T05:07:03.015Z,99087.36
2017-06-28T05:09:29.389Z,99086.31
2017-06-28T05:11:55.800Z,99094.62
2017-06-28T05:14:22.146Z,99102.95
2017-06-28T05:16:48.467Z,99093.73
2017-06-28T05:19:14.846Z,99093.96
2017-06-28T05:21:41.224Z,99096.47
2017-06-28T05:24:07.579Z,99097.14
2017-06-28T05:26:33.938Z,99094.12
2017-06-28T05:29:00.319Z,99095.67
2017-06-28T05:31:26.674Z,99098.83
2017-06-28T05:33:53.047Z,99099.70
2017-06-28T05:36:19.404Z,99091.23
2017-06-28T05:38:45.756Z,99095.54
2017-06-28T05:41:12.253Z,99093.41
2017-06-28T05:43:38.629Z,99093.12
2017-06-28T05:46:05.022Z,99093.28
2017-06-28T05:48:31.356Z,99091.30
2017-06-28T05:50:57.733Z,99100.80
2017-06-28T05:53:24.102Z,99102.45
2017-06-28T05:55:50.470Z,99099.59
2017-06-28T05:58:16.819Z,99096.16
2017-06-28T06:00:43.245Z,99099.61
2017-06-28T06:03:09.770Z,99100.05
2017-06-28T06:05:36.141Z,99099.11
2017-06-28T06:08:02.508Z,99091.48
2017-06-28T06:10:28.920Z,99083.69
2017-06-28T06:12:56.194Z,99083.52
2017-06-28T06:15:22.544Z,99082.66
2017-06-28T06:17:48.894Z,99072.91
2017-06-28T06:20:15.248Z,99065.25
2017-06-28T06:22:41.621Z,99068.28
2017-06-28T06:25:07.996Z,99068.98
2017-06-28T06:30:27.382Z,99070.45
2017-06-28T06:32:53.838Z,99075.53
2017-06-28T06:35:20.196Z,99067.23
2017-06-28T06:37:46.577Z,99070.05
2017-06-28T06:40:12.941Z,99066.80
2017-06-28T06:42:39.290Z,99064.75
2017-06-28T06:45:05.633Z,99069.38
2017-06-28T06:47:32.001Z,99062.44
2017-06-28T06:49:58.369Z,99065.63
2017-06-28T06:52:24.746Z,99069.24
2017-06-28T06:54:51.111Z,99064.59
2017-06-28T06:57:17.474Z,99062.72
2017-06-28T06:59:43.830Z,99054.78
2017-06-28T07:02:10.169Z,99057.92
2017-06-28T07:04:36.527Z,99046.06
2017-06-28T07:07:02.899Z,99052.50
2017-06-28T07:09:29.276Z,99046.59
2017-06-28T07:11:55.633Z,99040.02
2017-06-28T07:14:21.981Z,99043.08
2017-06-28T07:16:48.327Z,99037.29
2017-06-28T07:21:46.835Z,99038.47
2017-06-28T07:24:13.173Z,99046.27
2017-06-28T07:26:39.549Z,99042.16
2017-06-28T07:29:05.917Z,99037.52
2017-06-28T07:31:32.259Z,99034.41
2017-06-28T07:33:58.617Z,99036.25
2017-06-28T07:36:24.992Z,99039.20
2017-06-28T07:38:51.362Z,99042.95
2017-06-28T07:41:17.743Z,99042.34
2017-06-28T07:43:44.078Z,99039.48
2017-06-28T07:46:10.465Z,99035.77
2017-06-28T07:48:36.841Z,99029.11
2017-06-28T07:51:03.205Z,99031.73
2017-06-28T07:53:29.619Z,99025.91
2017-06-28T07:55:55.972Z,99030.66
2017-06-28T07:58:22.344Z,99037.33
2017-06-28T08:00:48.712Z,99030.84
2017-06-28T08:03:15.085Z,99031.75
2017-06-28T08:05:41.448Z,99030.36
2017-06-28T08:08:07.789Z,99035.91
2017-06-28T08:10:34.107Z,99034.52
2017-06-28T08:13:00.452Z,99035.15
2017-06-28T08:15:26.844Z,99032.58
2017-06-28T08:17:53.198Z,99028.61
2017-06-28T08:20:19.615Z,99025.39
2017-06-28T08:22:45.974Z,99033.53
2017-06-28T08:25:12.356Z,99026.34
2017-06-28T08:27:38.705Z,99020.45
2017-06-28T08:30:05.118Z,99022.83
2017-06-28T08:32:31.531Z,99023.53
2017-06-28T08:34:57.912Z,99027.53
2017-06-28T08:37:24.282Z,99027.39
2017-06-28T08:39:50.681Z,99019.81
2017-06-28T08:42:17.085Z,99014.38
2017-06-28T08:44:43.509Z,99021.48
2017-06-28T08:47:09.913Z,99020.11
2017-06-28T08:49:36.287Z,99022.67
2017-06-28T08:52:02.661Z,99028.62
2017-06-28T08:54:29.061Z,99029.39
2017-06-28T08:56:55.430Z,99024.52
2017-06-28T08:59:21.803Z,99026.03
2017-06-28T09:01:48.178Z,99026.48
2017-06-28T09:04:14.572Z,99017.18
2017-06-28T09:06:41.009Z,99016.25
2017-06-28T09:09:07.365Z,99018.97
2017-06-28T09:11:33.750Z,99023.11
2017-06-28T09:14:00.173Z,99019.72
2017-06-28T09:16:26.553Z,99017.73
2017-06-28T09:18:52.903Z,99018.10
2017-06-28T09:21:19.284Z,99011.41
2017-06-28T09:23:45.677Z,99016.45
2017-06-28T09:26:12.069Z,99017.03
2017-06-28T09:28:38.464Z,99011.67
2017-06-28T09:31:04.791Z,99010.47
2017-06-28T09:33:31.139Z,99010.19
2017-06-28T09:35:57.535Z,99010.75
2017-06-28T09:38:23.914Z,99008.48
2017-06-28T09:40:51.453Z,99012.16
2017-06-28T09:43:17.850Z,99000.72
2017-06-28T09:45:44.236Z,99002.84
2017-06-28T09:48:10.580Z,99002.46
2017-06-28T09:50:36.943Z,98995.26
2017-06-28T09:53:08.976Z,98995.06
2017-06-28T09:55:35.594Z,98990.00
2017-06-28T10:03:13.844Z,98983.20
2017-06-28T10:05:40.233Z,98982.70
2017-06-28T10:08:06.593Z,98982.06
2017-06-28T10:10:32.955Z,98968.13
2017-06-28T10:15:43.205Z,98961.10
2017-06-28T10:18:12.485Z,98969.68
2017-06-28T10:20:38.845Z,98963.37
2017-06-28T10:23:05.313Z,98964.99
2017-06-28T10:25:38.292Z,98967.53
2017-06-28T10:28:04.750Z,98959.83
2017-06-28T10:30:34.273Z,98959.94
2017-06-28T10:33:04.966Z,98961.38
2017-06-28T10:35:31.331Z,98954.92
2017-06-28T10:37:57.722Z,98954.80
2017-06-28T10:40:24.088Z,98953.97
2017-06-28T10:42:50.627Z,98950.94
2017-06-28T10:45:16.996Z,98949.73
2017-06-28T10:47:43.344Z,98943.16
2017-06-28T10:50:09.772Z,98948.63
2017-06-28T10:52:36.145Z,98940.00
2017-06-28T10:55:02.525Z,98940.59
2017-06-28T10:57:28.890Z,98948.09
2017-06-28T10:59:55.251Z,98948.16
2017-06-28T11:02:21.610Z,98946.78
2017-06-28T11:04:48.004Z,98944.33
2017-06-28T11:07:14.339Z,98938.10
2017-06-28T11:09:41.028Z,98937.47
2017-06-28T11:12:07.634Z,98939.81
2017-06-28T11:14:34.021Z,98932.23
2017-06-28T11:17:00.351Z,98934.25
2017-06-28T11:19:26.698Z,98934.92
2017-06-28T11:21:53.093Z,98934.46
2017-06-28T11:24:19.438Z,98931.84
2017-06-28T11:26:45.801Z,98936.48
2017-06-28T11:29:12.166Z,98922.89
2017-06-28T11:31:38.532Z,98928.27
2017-06-28T11:34:04.990Z,98923.23
2017-06-28T11:36:31.337Z,98927.27
2017-06-28T11:38:57.748Z,98924.94
2017-06-28T11:41:24.160Z,98917.88
2017-06-28T11:43:50.506Z,98913.97
2017-06-28T11:46:16.836Z,98915.05
2017-06-28T11:48:43.195Z,98913.42
2017-06-28T11:51:09.523Z,98905.91
2017-06-28T11:53:35.865Z,98908.63
2017-06-28T11:56:02.219Z,98903.96
2017-06-28T11:58:28.592Z,98903.53
2017-06-28T12:00:54.933Z,98904.94
2017-06-28T12:03:21.309Z,98906.72
2017-06-28T12:05:47.653Z,98906.01
2017-06-28T12:08:14.016Z,98905.53
2017-06-28T12:10:40.402Z,98906.30
2017-06-28T12:13:07.197Z,98907.45
2017-06-28T12:15:33.718Z,98904.13
2017-06-28T12:18:00.123Z,98898.57
2017-06-28T12:20:27.713Z,98893.27
2017-06-28T12:22:57.213Z,98888.98
2017-06-28T12:25:26.319Z,98888.89
2017-06-28T12:27:53.643Z,98892.12
2017-06-28T12:30:20.045Z,98888.92
2017-06-28T12:32:46.634Z,98878.19
2017-06-28T12:35:13.098Z,98876.97
2017-06-28T12:37:39.468Z,98875.21
2017-06-28T12:40:05.856Z,98870.03
2017-06-28T12:42:32.189Z,98864.63
2017-06-28T12:44:58.565Z,98848.64
2017-06-28T12:47:24.909Z,98855.63
2017-06-28T12:49:51.298Z,98853.64
2017-06-28T12:52:17.666Z,98852.80
2017-06-28T12:54:44.063Z,98854.27
2017-06-28T12:57:10.424Z,98855.92
2017-06-28T12:59:36.785Z,98861.64
2017-06-28T13:02:03.154Z,98860.28
2017-06-28T13:04:29.520Z,98858.71
2017-06-28T13:06:56.098Z,98860.06
2017-06-28T13:09:22.490Z,98848.77
2017-06-28T13:11:48.830Z,98851.77
2017-06-28T13:14:15.181Z,98851.70
2017-06-28T13:16:41.535Z,98859.14
2017-06-28T13:19:07.925Z,98880.59
2017-06-28T13:21:36.967Z,98892.73
2017-06-28T13:24:09.774Z,98897.64
2017-06-28T13:38:03.608Z,98921.33
2017-06-28T13:40:30.091Z,98929.61
2017-06-28T13:42:58.126Z,98934.13
2017-06-28T13:45:24.716Z,98939.59
2017-06-28T13:47:52.012Z,98935.28
2017-06-28T13:50:18.576Z,98940.08
2017-06-28T13:52:45.067Z,98938.33
2017-06-28T13:55:11.553Z,98937.64
2017-06-28T13:57:37.992Z,98939.88
2017-06-28T14:02:39.573Z,98936.41
2017-06-28T14:05:06.190Z,98938.59
2017-06-28T14:07:35.358Z,98947.08
2017-06-28T14:10:07.743Z,98954.79
2017-06-28T14:12:35.936Z,98958.70
2017-06-28T14:15:02.459Z,98956.95
2017-06-28T14:17:28.867Z,98969.93
2017-06-28T14:19:55.247Z,98963.64
2017-06-28T14:22:21.639Z,98969.08
2017-06-28T14:24:48.048Z,98962.96
2017-06-28T14:27:14.439Z,98956.09
2017-06-28T14:29:40.827Z,98953.95
2017-06-28T14:32:07.266Z,98950.88
2017-06-28T14:34:33.686Z,98945.62
2017-06-28T14:37:00.110Z,98940.20
2017-06-28T14:39:39.850Z,98943.14
2017-06-28T14:42:06.279Z,98941.69
2017-06-28T14:44:32.658Z,98941.37
2017-06-28T14:46:58.993Z,98940.87
2017-06-28T14:49:25.373Z,98936.16
2017-06-28T14:51:51.752Z,98925.36
2017-06-28T14:54:18.114Z,98924.84
2017-06-28T14:56:44.472Z,98914.39
2017-06-28T14:59:10.860Z,98912.02
2017-06-28T15:01:37.224Z,98902.59
2017-06-28T15:04:03.586Z,98897.55
2017-06-28T15:06:29.957Z,98888.77
2017-06-28T15:08:56.392Z,98901.20
2017-06-28T15:11:22.895Z,98895.54
2017-06-28T15:13:49.246Z,98893.80
2017-06-28T15:16:15.570Z,98894.89
2017-06-28T15:18:41.933Z,98893.20
2017-06-28T15:21:08.287Z,98895.36
2017-06-28T15:23:34.666Z,98890.02
2017-06-28T15:26:01.133Z,98882.02
2017-06-28T15:28:28.638Z,98888.14
2017-06-28T15:30:55.043Z,98888.61
2017-06-28T15:33:21.406Z,98886.86
2017-06-28T15:35:47.809Z,98887.20
2017-06-28T15:38:14.191Z,98886.23
2017-06-28T15:40:40.565Z,98883.77
2017-06-28T15:43:06.926Z,98882.77
2017-06-28T15:45:33.876Z,98885.49
2017-06-28T15:48:00.259Z,98880.61
2017-06-28T15:50:26.638Z,98881.98
2017-06-28T15:52:53.012Z,98879.77
2017-06-28T15:55:19.434Z,98880.59
2017-06-28T15:57:45.803Z,98886.50
2017-06-28T16:00:12.157Z,98883.69
2017-06-28T16:02:39.506Z,98887.64
2017-06-28T16:05:05.975Z,98883.61
2017-06-28T16:07:32.407Z,98885.70
2017-06-28T16:09:58.789Z,98888.67
2017-06-28T16:12:25.981Z,98886.92
2017-06-28T16:14:52.360Z,98884.58
2017-06-28T16:17:18.744Z,98886.14
2017-06-28T16:19:45.119Z,98889.45
2017-06-28T16:22:11.571Z,98890.94
2017-06-28T16:24:38.086Z,98898.50
2017-06-28T16:27:04.437Z,98896.26
2017-06-28T16:29:30.842Z,98891.58
2017-06-28T16:31:57.248Z,98881.64
2017-06-28T16:34:23.661Z,98890.02
2017-06-28T16:36:51.000Z,98885.29
2017-06-28T16:39:17.552Z,98897.05
2017-06-28T16:41:43.930Z,98894.33
2017-06-28T16:44:10.305Z,98891.73
2017-06-28T16:46:36.686Z,98886.05
2017-06-28T16:49:03.267Z,98880.75
2017-06-28T16:51:29.974Z,98881.48
2017-06-28T16:53:56.408Z,98883.48
2017-06-28T16:56:22.851Z,98884.06
2017-06-28T16:58:49.237Z,98882.04
2017-06-28T17:01:15.582Z,98883.20
2017-06-28T17:03:41.989Z,98880.19
2017-06-28T17:06:08.392Z,98882.63
2017-06-28T17:08:35.597Z,98877.89
2017-06-28T17:11:02.052Z,98886.16
2017-06-28T17:13:28.443Z,98880.72
2017-06-28T17:15:55.244Z,98884.25
2017-06-28T17:18:22.040Z,98888.06
2017-06-28T17:20:48.463Z,98896.67
2017-06-28T17:23:14.789Z,98891.03
2017-06-28T17:25:41.163Z,98895.23
2017-06-28T17:28:07.584Z,98892.62
2017-06-28T17:30:33.961Z,98891.41
2017-06-28T17:33:00.401Z,98884.60
2017-06-28T17:35:26.813Z,98879.59
2017-06-28T17:37:53.162Z,98888.32
2017-06-28T17:40:19.536Z,98888.38
2017-06-28T17:42:45.908Z,98885.47
2017-06-28T17:45:12.393Z,98892.47
2017-06-28T17:47:38.741Z,98891.55
2017-06-28T17:50:05.134Z,98890.34
2017-06-28T17:52:31.505Z,98896.44
2017-06-28T17:54:57.840Z,98895.78
2017-06-28T17:57:24.210Z,98887.03
2017-06-28T17:59:50.590Z,98879.02
2017-06-28T18:02:16.940Z,98876.69
2017-06-28T18:04:43.336Z,98881.87
2017-06-28T18:07:09.700Z,98892.42
2017-06-28T18:09:36.095Z,98884.55
2017-06-28T18:12:02.824Z,98892.11
2017-06-28T18:14:29.170Z,98885.48
2017-06-28T18:16:55.604Z,98886.58
2017-06-28T18:19:21.958Z,98879.09
2017-06-28T18:21:48.347Z,98882.70
2017-06-28T18:24:14.751Z,98880.13
2017-06-28T18:26:41.090Z,98875.05
2017-06-28T18:29:07.510Z,98882.31
2017-06-28T18:31:33.908Z,98875.53
2017-06-28T18:39:26.955Z,98878.91
2017-06-28T18:41:53.327Z,98873.58
2017-06-28T18:44:19.705Z,98871.02
2017-06-28T18:46:46.092Z,98880.26
2017-06-28T18:49:12.965Z,98877.72
2017-06-28T18:51:39.994Z,98869.67
2017-06-28T18:54:10.030Z,98870.56
2017-06-28T18:56:41.184Z,98870.08
2017-06-28T18:59:15.109Z,98868.64
2017-06-28T19:01:42.206Z,98870.33
2017-06-28T19:04:08.610Z,98863.05
2017-06-28T19:06:35.040Z,98858.97
2017-06-28T19:09:01.992Z,98861.16
2017-06-28T19:11:28.483Z,98859.19
2017-06-28T19:13:54.998Z,98860.91
2017-06-28T19:16:21.397Z,98859.20
2017-06-28T19:18:48.304Z,98861.80
2017-06-28T19:21:15.769Z,98860.42
2017-06-28T19:23:42.465Z,98861.30
2017-06-28T19:26:09.166Z,98861.49
2017-06-28T19:28:35.561Z,98857.13
2017-06-28T19:31:01.965Z,98861.16
2017-06-28T19:33:28.623Z,98862.52
2017-06-28T19:35:55.553Z,98855.06
2017-06-28T19:38:23.042Z,98859.66
2017-06-28T19:40:49.481Z,98853.62
2017-06-28T19:43:15.867Z,98852.46
2017-06-28T19:45:42.741Z,98852.97
2017-06-28T19:48:10.552Z,98848.84
2017-06-28T19:50:38.013Z,98844.59
